^^
Station Historical Data
Daily Summary for March 9, 2017 Units:  English    Metric   Both
« Previous Day
Next Day »
Daily Weekly Monthly Yearly Custom
  High: Low: Average:
Temperature: 62.2 °F 43.5 °F 53.1 °F
Dew Point: 30.1 °F 19.2 °F 23.9 °F
Humidity: 59 % 23 % 33 %
Wind Speed: 20.5 mph 0.2 mph 9.1 mph
Wind Gust: 34.5 mph - -
Wind:- - SW
Pressure: 30.04 in 29.93 in -
Precipitation: 0.00 in    
Historical Graphs
 
 
Tabular Data for March 9, 2017
Time Temperature Dew Point Pressure Wind Wind Speed Wind Gust Humidity Rainfall Rate (Hourly) solar Conditions
00:03 50.0 °F 24.7 °F 29.97 in West 6.4 mph 9.2 mph 37 % 0.00 in 0.0 W/m2 RA
00:08 49.9 °F 24.6 °F 29.97 in WSW 3.3 mph 6.9 mph 37 % 0.00 in 0.0 W/m2 RA
00:13 49.7 °F 25.1 °F 29.97 in West 3.2 mph 8.1 mph 38 % 0.00 in 0.0 W/m2 CLR
00:18 49.5 °F 24.9 °F 29.97 in WSW 2.1 mph 8.1 mph 38 % 0.00 in 0.0 W/m2 CLR
00:23 49.2 °F 24.6 °F 29.97 in West 5.9 mph 10.4 mph 38 % 0.00 in 0.0 W/m2 CLR
00:28 49.1 °F 24.6 °F 29.97 in WSW 5.1 mph 8.1 mph 38 % 0.00 in 0.0 W/m2 CLR
00:33 49.0 °F 24.5 °F 29.97 in WSW 3.7 mph 6.0 mph 38 % 0.00 in 0.0 W/m2 CLR
00:38 48.8 °F 24.9 °F 29.98 in West 1.5 mph 8.1 mph 39 % 0.00 in 0.0 W/m2 CLR
00:43 48.6 °F 24.7 °F 29.97 in WSW 6.8 mph 10.4 mph 39 % 0.00 in 0.0 W/m2 CLR
00:48 48.6 °F 24.7 °F 29.98 in West 1.8 mph 6.0 mph 39 % 0.00 in 0.0 W/m2 CLR
00:53 48.4 °F 24.6 °F 29.98 in West 4.8 mph 6.9 mph 39 % 0.00 in 0.0 W/m2 CLR
00:58 48.0 °F 24.8 °F 29.98 in West 1.4 mph 3.5 mph 40 % 0.00 in 0.0 W/m2 CLR
01:03 47.6 °F 25.0 °F 29.98 in WSW 5.9 mph 11.0 mph 41 % 0.00 in 0.0 W/m2 CLR
01:08 47.9 °F 24.7 °F 29.98 in SSW 4.2 mph 8.0 mph 40 % 0.00 in 0.0 W/m2 CLR
01:13 48.4 °F 24.6 °F 29.98 in WSW 6.2 mph 10.4 mph 39 % 0.00 in 0.0 W/m2 CLR
01:18 49.0 °F 25.1 °F 29.98 in SW 4.0 mph 6.9 mph 39 % 0.00 in 0.0 W/m2 CLR
01:23 49.2 °F 24.6 °F 29.98 in West 6.4 mph 11.5 mph 38 % 0.00 in 0.0 W/m2 CLR
01:28 49.1 °F 25.2 °F 29.98 in WSW 3.2 mph 8.1 mph 39 % 0.00 in 0.0 W/m2 CLR
01:33 49.1 °F 25.2 °F 29.98 in West 4.7 mph 9.2 mph 39 % 0.00 in 0.0 W/m2 CLR
01:38 49.0 °F 24.5 °F 29.98 in WSW 5.1 mph 12.0 mph 38 % 0.00 in 0.0 W/m2 CLR
01:43 49.6 °F 24.4 °F 29.98 in West 7.6 mph 12.7 mph 37 % 0.00 in 0.0 W/m2 CLR
01:48 50.2 °F 24.2 °F 29.98 in West 6.4 mph 12.7 mph 36 % 0.00 in 0.0 W/m2 CLR
01:53 50.4 °F 24.4 °F 29.98 in West 9.3 mph 11.0 mph 36 % 0.00 in 0.0 W/m2 CLR
01:58 50.6 °F 24.6 °F 29.98 in WNW 7.8 mph 11.0 mph 36 % 0.00 in 0.0 W/m2 CLR
02:03 50.9 °F 24.2 °F 29.98 in SW 12.2 mph 19.6 mph 35 % 0.00 in 0.0 W/m2 CLR
02:08 51.0 °F 24.3 °F 29.98 in WSW 7.7 mph 11.5 mph 35 % 0.00 in 0.0 W/m2 CLR
02:13 50.8 °F 24.1 °F 29.98 in WSW 7.2 mph 11.5 mph 35 % 0.00 in 0.0 W/m2 CLR
02:18 50.5 °F 24.5 °F 29.97 in WSW 9.2 mph 18.4 mph 36 % 0.00 in 0.0 W/m2 CLR
02:23 50.2 °F 24.2 °F 29.97 in SW 1.4 mph 6.0 mph 36 % 0.00 in 0.0 W/m2 CLR
02:28 49.8 °F 24.5 °F 29.97 in WSW 3.1 mph 6.9 mph 37 % 0.00 in 0.0 W/m2 CLR
02:33 49.4 °F 24.8 °F 29.98 in West 5.4 mph 9.2 mph 38 % 0.00 in 0.0 W/m2 CLR
02:38 49.2 °F 24.6 °F 29.97 in SW 4.9 mph 8.1 mph 38 % 0.00 in 0.0 W/m2 CLR
02:43 49.4 °F 24.8 °F 29.98 in WSW 6.0 mph 9.2 mph 38 % 0.00 in 0.0 W/m2 CLR
02:48 49.4 °F 24.8 °F 29.98 in West 4.2 mph 12.0 mph 38 % 0.00 in 0.0 W/m2 CLR
02:53 49.5 °F 24.3 °F 29.98 in West 6.2 mph 12.7 mph 37 % 0.00 in 0.0 W/m2 CLR
02:58 49.7 °F 24.5 °F 29.98 in West 7.1 mph 13.8 mph 37 % 0.00 in 0.0 W/m2 CLR
03:03 49.8 °F 24.5 °F 29.98 in SW 7.7 mph 12.0 mph 37 % 0.00 in 0.0 W/m2 CLR
03:08 49.8 °F 24.5 °F 29.97 in WSW 3.6 mph 8.1 mph 37 % 0.00 in 0.0 W/m2 CLR
03:13 49.5 °F 24.3 °F 29.97 in SW 5.3 mph 10.4 mph 37 % 0.00 in 0.0 W/m2 CLR
03:18 49.3 °F 24.1 °F 29.97 in WSW 3.6 mph 6.9 mph 37 % 0.00 in 0.0 W/m2 CLR
03:23 49.0 °F 24.5 °F 29.98 in WSW 1.9 mph 4.6 mph 38 % 0.00 in 0.0 W/m2 CLR
03:28 48.4 °F 24.6 °F 29.98 in West 0.3 mph 3.5 mph 39 % 0.00 in 0.0 W/m2 CLR
03:33 47.7 °F 24.5 °F 29.98 in SW 4.0 mph 9.2 mph 40 % 0.00 in 0.0 W/m2 CLR
03:39 47.4 °F 24.9 °F 29.99 in WSW 0.2 mph 2.3 mph 41 % 0.00 in 0.0 W/m2 CLR
03:44 47.3 °F 25.3 °F 29.99 in SW 2.6 mph 4.0 mph 42 % 0.00 in 0.0 W/m2 CLR
03:49 47.0 °F 25.1 °F 29.99 in WSW 1.0 mph 6.9 mph 42 % 0.00 in 0.0 W/m2 CLR
03:54 46.8 °F 24.9 °F 29.99 in WSW 2.2 mph 4.6 mph 42 % 0.00 in 0.0 W/m2 CLR
03:59 46.8 °F 25.5 °F 29.99 in West 1.7 mph 3.5 mph 43 % 0.00 in 0.0 W/m2 CLR
04:04 46.5 °F 25.2 °F 29.99 in WSW 1.7 mph 5.8 mph 43 % 0.00 in 0.0 W/m2 CLR
04:09 46.5 °F 24.6 °F 29.99 in WSW 5.3 mph 13.8 mph 42 % 0.00 in 0.0 W/m2 CLR
04:14 47.1 °F 24.0 °F 29.99 in WNW 8.2 mph 13.8 mph 40 % 0.00 in 0.0 W/m2 CLR
04:19 47.9 °F 24.1 °F 29.99 in West 5.0 mph 11.5 mph 39 % 0.00 in 0.0 W/m2 CLR
04:24 48.4 °F 23.9 °F 29.98 in West 10.6 mph 17.3 mph 38 % 0.00 in 0.0 W/m2 CLR
04:29 48.8 °F 23.6 °F 29.99 in West 9.0 mph 11.5 mph 37 % 0.00 in 0.0 W/m2 CLR
04:34 48.8 °F 23.6 °F 30.00 in WSW 3.7 mph 11.5 mph 37 % 0.00 in 0.0 W/m2 CLR
04:39 48.7 °F 23.6 °F 29.99 in West 7.9 mph 11.5 mph 37 % 0.00 in 0.0 W/m2 CLR
04:44 48.6 °F 23.5 °F 29.99 in WSW 3.0 mph 8.0 mph 37 % 0.00 in 0.0 W/m2 CLR
04:49 48.4 °F 23.9 °F 29.99 in West 4.0 mph 9.2 mph 38 % 0.00 in 0.0 W/m2 CLR
04:54 48.3 °F 23.8 °F 29.99 in West 5.2 mph 9.2 mph 38 % 0.00 in 0.0 W/m2 CLR
04:59 48.3 °F 23.8 °F 29.99 in WSW 3.6 mph 10.4 mph 38 % 0.00 in 0.0 W/m2 CLR
05:04 48.5 °F 23.4 °F 29.99 in WSW 10.1 mph 13.8 mph 37 % 0.00 in 0.0 W/m2 CLR
05:09 48.8 °F 23.0 °F 29.99 in WSW 9.9 mph 17.3 mph 36 % 0.00 in 0.0 W/m2 CLR
05:14 49.0 °F 23.2 °F 29.99 in West 9.2 mph 15.0 mph 36 % 0.00 in 0.0 W/m2 CLR
05:19 49.0 °F 23.8 °F 30.00 in WNW 7.0 mph 11.5 mph 37 % 0.00 in 0.0 W/m2 CLR
05:24 48.7 °F 23.6 °F 30.00 in West 6.6 mph 14.0 mph 37 % 0.00 in 0.0 W/m2 CLR
05:29 48.4 °F 23.9 °F 30.00 in SW 5.1 mph 8.1 mph 38 % 0.00 in 0.0 W/m2 CLR
05:34 48.0 °F 23.6 °F 30.00 in West 0.4 mph 2.3 mph 38 % 0.00 in 0.0 W/m2 CLR
05:39 47.4 °F 23.7 °F 30.00 in WSW 1.0 mph 3.5 mph 39 % 0.00 in 0.0 W/m2 CLR
05:44 46.9 °F 23.2 °F 30.00 in West 4.2 mph 6.9 mph 39 % 0.00 in 0.0 W/m2 CLR
05:49 46.8 °F 23.7 °F 30.00 in WNW 4.1 mph 9.2 mph 40 % 0.00 in 0.0 W/m2 CLR
05:54 47.1 °F 23.4 °F 30.00 in West 11.7 mph 19.6 mph 39 % 0.00 in 0.0 W/m2 CLR
05:55 47.1 °F 23.4 °F 30.00 in West 9.7 mph 15.0 mph 39 % 0.00 in 0.0 W/m2 CLR
06:00 47.6 °F 23.2 °F 30.00 in West 11.0 mph 25.3 mph 38 % 0.00 in 0.0 W/m2 CLR
06:05 48.2 °F 23.1 °F 30.00 in WSW 14.4 mph 19.6 mph 37 % 0.00 in 0.0 W/m2 CLR
06:10 48.6 °F 22.8 °F 30.00 in WNW 10.8 mph 13.8 mph 36 % 0.00 in 0.0 W/m2 CLR
06:15 48.8 °F 23.0 °F 30.00 in West 8.5 mph 11.5 mph 36 % 0.00 in 0.0 W/m2 CLR
06:20 48.6 °F 23.5 °F 30.00 in WSW 11.4 mph 15.0 mph 37 % 0.00 in 0.0 W/m2 CLR
06:25 48.3 °F 23.8 °F 30.00 in WNW 5.4 mph 11.5 mph 38 % 0.00 in 5.0 W/m2 CLR
06:30 48.1 °F 23.7 °F 30.00 in West 6.6 mph 11.5 mph 38 % 0.00 in 7.0 W/m2 CLR
06:35 48.1 °F 23.7 °F 30.01 in WSW 10.3 mph 16.1 mph 38 % 0.00 in 9.0 W/m2 CLR
06:40 48.2 °F 23.1 °F 30.00 in West 10.5 mph 18.4 mph 37 % 0.00 in 11.0 W/m2 CLR
06:45 48.5 °F 23.4 °F 30.01 in West 14.0 mph 21.9 mph 37 % 0.00 in 14.0 W/m2 CLR
06:50 48.8 °F 23.0 °F 30.01 in West 13.6 mph 23.0 mph 36 % 0.00 in 16.0 W/m2 CLR
06:55 49.1 °F 23.3 °F 30.01 in West 9.2 mph 15.0 mph 36 % 0.00 in 18.0 W/m2 CLR
07:00 49.3 °F 22.8 °F 30.01 in WSW 7.7 mph 13.8 mph 35 % 0.00 in 21.0 W/m2 CLR
07:05 49.3 °F 22.8 °F 30.01 in West 10.9 mph 16.1 mph 35 % 0.00 in 21.0 W/m2 CLR
07:10 49.4 °F 23.5 °F 30.01 in West 12.9 mph 19.6 mph 36 % 0.00 in 23.0 W/m2 BKN
07:15 49.4 °F 24.2 °F 30.01 in West 11.3 mph 17.3 mph 37 % 0.00 in 37.0 W/m2 SCT
07:20 49.3 °F 24.1 °F 30.02 in West 10.4 mph 16.1 mph 37 % 0.00 in 46.0 W/m2 SCT
07:25 49.3 °F 24.1 °F 30.01 in WSW 10.1 mph 11.5 mph 37 % 0.00 in 77.0 W/m2 FEW
07:30 49.5 °F 24.3 °F 30.02 in West 14.1 mph 20.7 mph 37 % 0.00 in 47.0 W/m2 BKN
07:35 49.7 °F 23.8 °F 30.01 in WSW 11.1 mph 19.6 mph 36 % 0.00 in 67.0 W/m2 SCT
07:40 49.9 °F 24.0 °F 30.02 in WSW 14.4 mph 24.2 mph 36 % 0.00 in 63.0 W/m2 FEW
07:45 50.0 °F 24.1 °F 30.02 in West 9.1 mph 13.8 mph 36 % 0.00 in 95.0 W/m2 SCT
07:50 50.3 °F 23.7 °F 30.02 in West 9.3 mph 16.1 mph 35 % 0.00 in 134.0 W/m2 FEW
07:55 50.6 °F 23.9 °F 30.02 in SSW 8.1 mph 11.5 mph 35 % 0.00 in 105.0 W/m2 BKN
08:00 50.8 °F 23.4 °F 30.03 in WNW 9.7 mph 17.3 mph 34 % 0.00 in 171.0 W/m2 CLR
08:01 50.9 °F 23.5 °F 30.03 in WSW 8.2 mph 11.5 mph 34 % 0.00 in 171.0 W/m2 CLR
08:06 51.1 °F 22.2 °F 30.02 in WSW 11.0 mph 19.0 mph 32 % 0.00 in 183.0 W/m2 FEW
08:11 51.3 °F 22.4 °F 30.03 in NW 16.0 mph 19.6 mph 32 % 0.00 in 142.0 W/m2 SCT
08:16 51.5 °F 21.0 °F 30.03 in West 19.2 mph 31.1 mph 30 % 0.00 in 192.0 W/m2 FEW
08:21 51.7 °F 21.2 °F 30.02 in West 13.0 mph 19.6 mph 30 % 0.00 in 229.0 W/m2 CLR
08:26 51.9 °F 20.6 °F 30.03 in West 20.5 mph 31.1 mph 29 % 0.00 in 380.0 W/m2 CLR
08:31 52.1 °F 21.6 °F 30.03 in WSW 18.7 mph 19.6 mph 30 % 0.00 in 394.0 W/m2 CLR
08:36 52.1 °F 20.8 °F 30.03 in West 11.5 mph 18.4 mph 29 % 0.00 in 413.0 W/m2 CLR
08:41 52.4 °F 21.0 °F 30.03 in WNW 13.9 mph 25.3 mph 29 % 0.00 in 431.0 W/m2 CLR
08:46 52.7 °F 21.3 °F 30.04 in NW 13.0 mph 17.3 mph 29 % 0.00 in 446.0 W/m2 CLR
08:51 53.0 °F 19.9 °F 30.04 in WNW 18.5 mph 26.5 mph 27 % 0.00 in 462.0 W/m2 CLR
08:56 53.3 °F 21.0 °F 30.04 in West 8.6 mph 15.0 mph 28 % 0.00 in 476.0 W/m2 CLR
09:01 53.4 °F 21.1 °F 30.04 in West 15.7 mph 32.0 mph 28 % 0.00 in 492.0 W/m2 CLR
09:06 53.5 °F 19.4 °F 30.04 in West 17.6 mph 25.3 mph 26 % 0.00 in 508.0 W/m2 CLR
09:11 53.7 °F 20.5 °F 30.04 in West 15.0 mph 21.9 mph 27 % 0.00 in 520.0 W/m2 CLR
09:16 53.5 °F 20.3 °F 30.04 in WSW 15.1 mph 20.7 mph 27 % 0.00 in 533.0 W/m2 CLR
09:21 53.5 °F 20.3 °F 30.03 in WNW 13.0 mph 20.7 mph 27 % 0.00 in 552.0 W/m2 CLR
09:26 53.7 °F 19.6 °F 30.03 in West 14.1 mph 24.2 mph 26 % 0.00 in 566.0 W/m2 CLR
09:31 53.8 °F 19.7 °F 30.03 in WNW 12.2 mph 20.7 mph 26 % 0.00 in 577.0 W/m2 CLR
09:36 53.8 °F 19.7 °F 30.04 in WNW 12.5 mph 24.2 mph 26 % 0.00 in 589.0 W/m2 CLR
09:41 54.3 °F 20.1 °F 30.03 in WSW 15.9 mph 27.6 mph 26 % 0.00 in 599.0 W/m2 CLR
09:46 54.3 °F 19.2 °F 30.03 in West 19.0 mph 26.5 mph 25 % 0.00 in 605.0 W/m2 CLR
09:51 54.2 °F 20.0 °F 30.03 in WNW 15.4 mph 25.3 mph 26 % 0.00 in 622.0 W/m2 CLR
09:56 54.6 °F 21.2 °F 30.03 in West 15.4 mph 21.9 mph 27 % 0.00 in 636.0 W/m2 CLR
10:01 54.9 °F 20.6 °F 30.03 in WNW 19.3 mph 27.6 mph 26 % 0.00 in 640.0 W/m2 CLR
10:06 54.7 °F 20.4 °F 30.03 in WSW 14.6 mph 33.4 mph 26 % 0.00 in 656.0 W/m2 CLR
10:11 54.7 °F 20.4 °F 30.02 in West 13.9 mph 19.6 mph 26 % 0.00 in 668.0 W/m2 CLR
10:16 55.0 °F 21.6 °F 30.02 in West 7.3 mph 12.7 mph 27 % 0.00 in 671.0 W/m2 CLR
10:21 55.2 °F 20.9 °F 30.02 in West 11.8 mph 17.3 mph 26 % 0.00 in 680.0 W/m2 CLR
10:26 55.4 °F 21.0 °F 30.02 in West 14.2 mph 19.6 mph 26 % 0.00 in 693.0 W/m2 CLR
10:31 55.7 °F 21.3 °F 30.02 in SW 18.9 mph 26.5 mph 26 % 0.00 in 698.0 W/m2 CLR
10:36 55.7 °F 22.2 °F 30.02 in West 11.5 mph 18.4 mph 27 % 0.00 in 708.0 W/m2 CLR
10:41 55.8 °F 21.4 °F 30.02 in West 14.1 mph 23.0 mph 26 % 0.00 in 712.0 W/m2 CLR
10:46 55.9 °F 21.5 °F 30.01 in WSW 13.5 mph 20.0 mph 26 % 0.00 in 722.0 W/m2 CLR
10:51 56.1 °F 21.6 °F 30.01 in WSW 19.7 mph 34.5 mph 26 % 0.00 in 731.0 W/m2 CLR
10:56 56.0 °F 21.6 °F 30.01 in WSW 18.0 mph 24.2 mph 26 % 0.00 in 735.0 W/m2 CLR
11:01 56.2 °F 21.7 °F 30.01 in West 11.8 mph 19.6 mph 26 % 0.00 in 744.0 W/m2 CLR
11:06 56.6 °F 22.1 °F 30.02 in SW 12.4 mph 19.6 mph 26 % 0.00 in 751.0 W/m2 CLR
11:11 56.9 °F 22.3 °F 30.02 in West 13.4 mph 21.9 mph 26 % 0.00 in 756.0 W/m2 CLR
11:16 56.9 °F 22.3 °F 30.02 in West 9.8 mph 18.4 mph 26 % 0.00 in 759.0 W/m2 CLR
11:21 57.0 °F 22.4 °F 30.02 in WNW 11.4 mph 18.0 mph 26 % 0.00 in 765.0 W/m2 CLR
11:26 57.0 °F 22.4 °F 30.02 in WSW 15.8 mph 26.5 mph 26 % 0.00 in 763.0 W/m2 CLR
11:31 57.0 °F 22.4 °F 30.01 in WSW 11.1 mph 16.0 mph 26 % 0.00 in 772.0 W/m2 CLR
11:36 57.5 °F 22.8 °F 30.02 in West 11.1 mph 19.6 mph 26 % 0.00 in 775.0 W/m2 CLR
11:41 57.8 °F 22.2 °F 30.01 in West 15.6 mph 26.5 mph 25 % 0.00 in 777.0 W/m2 CLR
11:46 57.8 °F 22.2 °F 30.00 in WSW 9.1 mph 15.0 mph 25 % 0.00 in 779.0 W/m2 CLR
11:51 58.1 °F 23.3 °F 30.00 in SW 14.1 mph 21.9 mph 26 % 0.00 in 779.0 W/m2 CLR
11:56 58.2 °F 22.5 °F 29.99 in WNW 9.3 mph 15.0 mph 25 % 0.00 in 780.0 W/m2 CLR
12:01 58.6 °F 22.8 °F 29.99 in WSW 14.6 mph 23.0 mph 25 % 0.00 in 780.0 W/m2 CLR
12:06 58.5 °F 22.8 °F 29.99 in West 15.0 mph 24.2 mph 25 % 0.00 in 779.0 W/m2 CLR
12:11 58.9 °F 24.0 °F 29.99 in WSW 13.0 mph 19.6 mph 26 % 0.00 in 780.0 W/m2 CLR
12:16 58.9 °F 23.1 °F 29.99 in WNW 12.1 mph 22.0 mph 25 % 0.00 in 777.0 W/m2 CLR
12:20 58.8 °F 23.0 °F 29.99 in West 16.2 mph 26.5 mph 25 % 0.00 in 777.0 W/m2 CLR
12:25 58.9 °F 24.0 °F 29.98 in WSW 13.1 mph 21.9 mph 26 % 0.00 in 777.0 W/m2 CLR
12:30 59.0 °F 23.2 °F 29.98 in WSW 14.6 mph 19.6 mph 25 % 0.00 in 777.0 W/m2 CLR
12:35 58.7 °F 22.9 °F 29.98 in WNW 15.7 mph 26.5 mph 25 % 0.00 in 772.0 W/m2 CLR
12:40 59.1 °F 23.3 °F 29.98 in WNW 16.0 mph 23.0 mph 25 % 0.00 in 768.0 W/m2 CLR
12:45 59.4 °F 23.5 °F 29.97 in WNW 15.9 mph 24.2 mph 25 % 0.00 in 766.0 W/m2 CLR
12:50 60.1 °F 24.1 °F 29.97 in West 13.7 mph 24.0 mph 25 % 0.00 in 765.0 W/m2 CLR
12:55 59.9 °F 23.0 °F 29.97 in West 20.2 mph 27.6 mph 24 % 0.00 in 761.0 W/m2 CLR
13:00 59.8 °F 22.9 °F 29.97 in West 11.1 mph 26.5 mph 24 % 0.00 in 752.0 W/m2 CLR
13:05 60.2 °F 24.2 °F 29.97 in WNW 14.7 mph 23.0 mph 25 % 0.00 in 747.0 W/m2 CLR
13:10 60.3 °F 24.3 °F 29.97 in West 10.4 mph 15.0 mph 25 % 0.00 in 744.0 W/m2 CLR
13:15 60.5 °F 24.5 °F 29.97 in West 9.9 mph 16.1 mph 25 % 0.00 in 737.0 W/m2 CLR
13:20 60.7 °F 23.7 °F 29.97 in WNW 12.4 mph 19.6 mph 24 % 0.00 in 729.0 W/m2 CLR
13:25 61.1 °F 25.0 °F 29.97 in West 15.0 mph 20.7 mph 25 % 0.00 in 724.0 W/m2 CLR
13:30 61.0 °F 23.9 °F 29.96 in WNW 16.5 mph 24.2 mph 24 % 0.00 in 717.0 W/m2 CLR
13:32 61.1 °F 25.0 °F 29.96 in WNW 13.6 mph 19.6 mph 25 % 0.00 in 712.0 W/m2 CLR
13:34 61.1 °F 24.0 °F 29.96 in SW 15.0 mph 24.2 mph 24 % 0.00 in 707.0 W/m2 CLR
13:36 61.1 °F 24.0 °F 29.96 in SW 14.0 mph 19.6 mph 24 % 0.00 in 701.0 W/m2 CLR
13:37 61.0 °F 24.9 °F 29.96 in SW 15.6 mph 19.6 mph 25 % 0.00 in 700.0 W/m2 CLR
13:38 61.1 °F 25.0 °F 29.96 in West 7.4 mph 26.5 mph 25 % 0.00 in 701.0 W/m2 CLR
13:41 61.2 °F 24.1 °F 29.96 in West 13.2 mph 19.0 mph 24 % 0.00 in 694.0 W/m2 CLR
13:42 61.2 °F 25.1 °F 29.96 in WSW 15.7 mph 21.9 mph 25 % 0.00 in 694.0 W/m2 CLR
13:46 60.9 °F 23.8 °F 29.96 in NW 19.8 mph 26.5 mph 24 % 0.00 in 687.0 W/m2 CLR
13:51 60.8 °F 24.7 °F 29.96 in West 10.5 mph 17.3 mph 25 % 0.00 in 679.0 W/m2 CLR
13:56 61.2 °F 25.1 °F 29.95 in WSW 12.0 mph 16.1 mph 25 % 0.00 in 671.0 W/m2 CLR
14:01 61.3 °F 24.2 °F 29.95 in WSW 13.4 mph 20.7 mph 24 % 0.00 in 663.0 W/m2 CLR
14:06 61.3 °F 25.1 °F 29.95 in West 10.9 mph 16.1 mph 25 % 0.00 in 656.0 W/m2 CLR
14:11 61.7 °F 24.5 °F 29.95 in West 13.6 mph 17.3 mph 24 % 0.00 in 645.0 W/m2 CLR
14:16 61.5 °F 24.3 °F 29.95 in West 16.0 mph 25.3 mph 24 % 0.00 in 633.0 W/m2 CLR
14:21 61.3 °F 24.2 °F 29.95 in West 8.7 mph 16.1 mph 24 % 0.00 in 624.0 W/m2 CLR
14:26 61.5 °F 24.3 °F 29.95 in West 12.0 mph 19.6 mph 24 % 0.00 in 606.0 W/m2 CLR
14:31 61.7 °F 24.5 °F 29.95 in West 17.6 mph 26.5 mph 24 % 0.00 in 599.0 W/m2 CLR
14:36 61.7 °F 24.5 °F 29.94 in West 18.5 mph 27.6 mph 24 % 0.00 in 585.0 W/m2 CLR
14:41 61.4 °F 24.2 °F 29.94 in West 13.4 mph 27.6 mph 24 % 0.00 in 571.0 W/m2 CLR
14:46 61.5 °F 24.3 °F 29.94 in WSW 14.7 mph 19.6 mph 24 % 0.00 in 555.0 W/m2 CLR
14:51 61.6 °F 24.4 °F 29.94 in WSW 15.4 mph 28.8 mph 24 % 0.00 in 545.0 W/m2 CLR
14:56 61.7 °F 23.5 °F 29.94 in WSW 10.9 mph 21.9 mph 23 % 0.00 in 531.0 W/m2 CLR
15:01 61.9 °F 24.7 °F 29.94 in West 11.2 mph 19.6 mph 24 % 0.00 in 517.0 W/m2 CLR
15:06 61.9 °F 24.7 °F 29.94 in WSW 14.1 mph 19.6 mph 24 % 0.00 in 504.0 W/m2 CLR
15:11 62.0 °F 23.7 °F 29.94 in West 12.3 mph 19.6 mph 23 % 0.00 in 489.0 W/m2 CLR
15:16 62.0 °F 25.7 °F 29.94 in SSW 8.4 mph 18.4 mph 25 % 0.00 in 475.0 W/m2 CLR
15:21 62.1 °F 24.8 °F 29.94 in WNW 10.4 mph 18.4 mph 24 % 0.00 in 461.0 W/m2 CLR
15:26 62.2 °F 24.9 °F 29.94 in WNW 10.4 mph 13.8 mph 24 % 0.00 in 441.0 W/m2 CLR
15:31 62.1 °F 23.8 °F 29.94 in WNW 12.6 mph 21.9 mph 23 % 0.00 in 424.0 W/m2 CLR
15:36 61.9 °F 23.6 °F 29.93 in West 18.5 mph 29.9 mph 23 % 0.00 in 411.0 W/m2 CLR
15:41 61.8 °F 23.6 °F 29.93 in West 13.6 mph 21.9 mph 23 % 0.00 in 397.0 W/m2 CLR
15:46 61.6 °F 24.4 °F 29.93 in WNW 10.7 mph 16.1 mph 24 % 0.00 in 380.0 W/m2 CLR
15:51 61.7 °F 24.5 °F 29.93 in NW 11.6 mph 18.4 mph 24 % 0.00 in 364.0 W/m2 CLR
15:56 62.1 °F 24.8 °F 29.93 in West 9.8 mph 14.0 mph 24 % 0.00 in 346.0 W/m2 CLR
16:01 62.2 °F 24.9 °F 29.94 in West 13.2 mph 26.5 mph 24 % 0.00 in 330.0 W/m2 CLR
16:06 62.1 °F 24.8 °F 29.94 in WSW 13.0 mph 21.9 mph 24 % 0.00 in 311.0 W/m2 CLR
16:11 61.9 °F 24.7 °F 29.93 in WNW 11.1 mph 18.4 mph 24 % 0.00 in 295.0 W/m2 CLR
16:16 61.8 °F 24.6 °F 29.93 in West 11.5 mph 20.7 mph 24 % 0.00 in 276.0 W/m2 CLR
16:21 61.6 °F 24.4 °F 29.93 in West 14.9 mph 24.2 mph 24 % 0.00 in 257.0 W/m2 CLR
16:26 61.4 °F 24.2 °F 29.93 in West 13.7 mph 26.5 mph 24 % 0.00 in 236.0 W/m2 CLR
16:31 61.2 °F 24.1 °F 29.93 in West 13.2 mph 18.4 mph 24 % 0.00 in 218.0 W/m2 CLR
16:36 61.0 °F 24.9 °F 29.93 in West 14.7 mph 16.0 mph 25 % 0.00 in 195.0 W/m2 CLR
16:41 60.9 °F 24.8 °F 29.94 in West 11.2 mph 17.3 mph 25 % 0.00 in 179.0 W/m2 CLR
16:46 60.9 °F 24.8 °F 29.94 in WNW 9.3 mph 19.6 mph 25 % 0.00 in 162.0 W/m2 CLR
16:51 60.9 °F 24.8 °F 29.94 in West 12.1 mph 24.2 mph 25 % 0.00 in 149.0 W/m2 CLR
16:56 60.9 °F 24.8 °F 29.94 in West 11.7 mph 17.3 mph 25 % 0.00 in 128.0 W/m2 CLR
17:01 60.5 °F 24.5 °F 29.94 in WNW 9.5 mph 15.0 mph 25 % 0.00 in 62.0 W/m2 BKN
17:06 60.2 °F 24.2 °F 29.94 in WNW 9.9 mph 19.6 mph 25 % 0.00 in 111.0 W/m2 CLR
17:11 60.2 °F 24.2 °F 29.94 in WNW 6.7 mph 13.8 mph 25 % 0.00 in 100.0 W/m2 CLR
17:16 60.2 °F 24.2 °F 29.95 in West 8.8 mph 13.0 mph 25 % 0.00 in 67.0 W/m2 FEW
17:21 60.1 °F 24.1 °F 29.95 in West 12.0 mph 23.0 mph 25 % 0.00 in 33.0 W/m2 BKN
17:26 59.7 °F 24.7 °F 29.95 in WSW 10.0 mph 12.7 mph 26 % 0.00 in 28.0 W/m2 BKN
17:31 59.3 °F 24.4 °F 29.95 in West 9.8 mph 19.6 mph 26 % 0.00 in 19.0 W/m2 BKN
17:36 59.1 °F 24.2 °F 29.95 in WNW 10.0 mph 15.0 mph 26 % 0.00 in 21.0 W/m2 BKN
17:41 58.9 °F 24.0 °F 29.95 in WNW 12.1 mph 25.0 mph 26 % 0.00 in 19.0 W/m2 SCT
17:42 58.9 °F 24.0 °F 29.95 in West 14.2 mph 25.3 mph 26 % 0.00 in 19.0 W/m2 SCT
17:47 58.9 °F 24.0 °F 29.95 in WSW 9.6 mph 17.3 mph 26 % 0.00 in 14.0 W/m2 SCT
17:52 58.9 °F 24.0 °F 29.95 in WNW 11.7 mph 17.3 mph 26 % 0.00 in 9.0 W/m2 SCT
17:57 58.8 °F 23.9 °F 29.95 in West 8.7 mph 13.8 mph 26 % 0.00 in 5.0 W/m2 SCT
18:02 58.8 °F 23.0 °F 29.95 in NW 12.4 mph 17.3 mph 25 % 0.00 in 0.0 W/m2 SCT
18:07 58.6 °F 23.8 °F 29.96 in WNW 4.2 mph 8.1 mph 26 % 0.00 in 0.0 W/m2 SCT
18:12 58.2 °F 23.4 °F 29.96 in NNW 7.6 mph 11.5 mph 26 % 0.00 in 0.0 W/m2 SCT
18:17 57.7 °F 23.0 °F 29.96 in WNW 9.3 mph 11.5 mph 26 % 0.00 in 0.0 W/m2 SCT
18:22 57.5 °F 22.8 °F 29.96 in WNW 4.8 mph 8.1 mph 26 % 0.00 in 0.0 W/m2 SCT
18:27 57.2 °F 23.5 °F 29.96 in WNW 7.0 mph 10.4 mph 27 % 0.00 in 0.0 W/m2 SCT
18:32 56.9 °F 23.2 °F 29.96 in NW 5.8 mph 9.2 mph 27 % 0.00 in 0.0 W/m2 SCT
18:37 56.6 °F 23.0 °F 29.97 in WNW 3.4 mph 6.9 mph 27 % 0.00 in 0.0 W/m2 SCT
18:42 56.3 °F 23.6 °F 29.97 in NW 4.0 mph 8.1 mph 28 % 0.00 in 0.0 W/m2 SCT
18:47 56.1 °F 23.4 °F 29.97 in NW 4.5 mph 8.1 mph 28 % 0.00 in 0.0 W/m2 SCT
18:52 55.9 °F 23.2 °F 29.97 in WNW 6.3 mph 9.2 mph 28 % 0.00 in 0.0 W/m2 SCT
18:57 55.6 °F 23.0 °F 29.97 in NW 6.9 mph 16.0 mph 28 % 0.00 in 0.0 W/m2 SCT
19:02 55.6 °F 23.0 °F 29.97 in NW 9.0 mph 15.0 mph 28 % 0.00 in 0.0 W/m2 SCT
19:07 55.6 °F 23.8 °F 29.97 in NW 6.2 mph 11.5 mph 29 % 0.00 in 0.0 W/m2 SCT
19:12 55.5 °F 23.7 °F 29.98 in NW 10.7 mph 15.0 mph 29 % 0.00 in 0.0 W/m2 SCT
19:17 55.5 °F 23.7 °F 29.98 in WNW 7.0 mph 12.7 mph 29 % 0.00 in 0.0 W/m2 SCT
19:22 55.5 °F 24.5 °F 29.98 in WNW 5.4 mph 9.2 mph 30 % 0.00 in 0.0 W/m2 SCT
19:27 55.4 °F 25.2 °F 29.98 in NW 3.8 mph 5.8 mph 31 % 0.00 in 0.0 W/m2 SCT
19:32 55.1 °F 25.0 °F 29.99 in NW 9.8 mph 16.1 mph 31 % 0.00 in 0.0 W/m2 SCT
19:37 54.5 °F 25.2 °F 29.99 in North 6.9 mph 11.5 mph 32 % 0.00 in 0.0 W/m2 SCT
19:42 53.8 °F 25.3 °F 29.99 in North 4.3 mph 6.9 mph 33 % 0.00 in 0.0 W/m2 SCT
19:47 52.7 °F 26.5 °F 29.99 in NNE 6.8 mph 11.0 mph 36 % 0.00 in 0.0 W/m2 SCT
19:52 51.7 °F 26.2 °F 30.00 in NE 6.7 mph 11.5 mph 37 % 0.00 in 0.0 W/m2 SCT
19:57 51.2 °F 26.4 °F 30.00 in NNE 5.7 mph 9.2 mph 38 % 0.00 in 0.0 W/m2 SCT
20:02 50.8 °F 26.7 °F 30.00 in NNE 7.5 mph 10.4 mph 39 % 0.00 in 0.0 W/m2 SCT
20:07 50.3 °F 26.3 °F 30.00 in NNE 10.6 mph 12.7 mph 39 % 0.00 in 0.0 W/m2 SCT
20:12 50.0 °F 25.4 °F 30.00 in North 7.9 mph 10.4 mph 38 % 0.00 in 0.0 W/m2 SCT
20:17 49.7 °F 26.3 °F 30.00 in NNE 5.2 mph 10.0 mph 40 % 0.00 in 0.0 W/m2 SCT
20:22 49.3 °F 26.0 °F 30.00 in NNE 7.0 mph 10.4 mph 40 % 0.00 in 0.0 W/m2 SCT
20:27 49.1 °F 25.8 °F 30.00 in NNE 6.6 mph 11.5 mph 40 % 0.00 in 0.0 W/m2 SCT
20:32 48.9 °F 25.0 °F 30.00 in NNE 6.3 mph 10.4 mph 39 % 0.00 in 0.0 W/m2 SCT
20:37 48.8 °F 24.9 °F 30.00 in NNE 6.6 mph 9.2 mph 39 % 0.00 in 0.0 W/m2 SCT
20:42 48.6 °F 24.7 °F 30.00 in NNE 5.4 mph 8.1 mph 39 % 0.00 in 0.0 W/m2 SCT
20:47 48.5 °F 25.2 °F 30.00 in NNE 6.4 mph 9.2 mph 40 % 0.00 in 0.0 W/m2 SCT
20:52 48.3 °F 25.1 °F 30.00 in NNE 6.0 mph 10.4 mph 40 % 0.00 in 0.0 W/m2 SCT
20:57 48.3 °F 25.1 °F 30.01 in North 2.3 mph 3.5 mph 40 % 0.00 in 0.0 W/m2 SCT
21:02 48.2 °F 25.0 °F 30.00 in NNE 4.4 mph 8.0 mph 40 % 0.00 in 0.0 W/m2 SCT
21:07 48.1 °F 24.9 °F 30.00 in NNE 3.7 mph 5.0 mph 40 % 0.00 in 0.0 W/m2 SCT
21:12 47.9 °F 25.3 °F 30.00 in NNE 2.7 mph 4.0 mph 41 % 0.00 in 0.0 W/m2 SCT
21:17 47.8 °F 25.2 °F 30.00 in NNE 2.4 mph 4.6 mph 41 % 0.00 in 0.0 W/m2 SCT
21:22 47.6 °F 25.0 °F 30.00 in NNE 3.9 mph 6.9 mph 41 % 0.00 in 0.0 W/m2 SCT
21:27 47.5 °F 24.9 °F 30.01 in North 5.7 mph 8.1 mph 41 % 0.00 in 0.0 W/m2 SCT
21:32 47.5 °F 24.9 °F 30.00 in NNE 5.0 mph 9.2 mph 41 % 0.00 in 0.0 W/m2 SCT
21:37 47.4 °F 24.9 °F 30.00 in North 3.4 mph 5.8 mph 41 % 0.00 in 0.0 W/m2 SCT
21:42 47.3 °F 24.8 °F 30.00 in NNE 5.1 mph 8.1 mph 41 % 0.00 in 0.0 W/m2 SCT
21:47 47.2 °F 24.7 °F 30.00 in North 4.9 mph 8.1 mph 41 % 0.00 in 0.0 W/m2 SCT
21:52 47.1 °F 25.2 °F 30.01 in NNE 5.0 mph 8.1 mph 42 % 0.00 in 0.0 W/m2 SCT
21:57 47.0 °F 25.1 °F 30.01 in North 4.4 mph 8.1 mph 42 % 0.00 in 0.0 W/m2 SCT
22:02 46.8 °F 24.9 °F 30.01 in North 5.8 mph 9.2 mph 42 % 0.00 in 0.0 W/m2 SCT
22:07 46.6 °F 24.7 °F 30.01 in NNE 5.4 mph 8.1 mph 42 % 0.00 in 0.0 W/m2 SCT
22:12 46.4 °F 25.1 °F 30.01 in North 4.0 mph 6.9 mph 43 % 0.00 in 0.0 W/m2 SCT
22:17 46.2 °F 24.9 °F 30.00 in NNE 5.0 mph 9.2 mph 43 % 0.00 in 0.0 W/m2 SCT
22:22 46.2 °F 24.9 °F 30.01 in North 3.8 mph 8.1 mph 43 % 0.00 in 0.0 W/m2 SCT
22:27 46.1 °F 24.8 °F 30.01 in NNE 3.2 mph 5.8 mph 43 % 0.00 in 0.0 W/m2 SCT
22:32 46.0 °F 24.7 °F 30.01 in NNE 2.7 mph 6.9 mph 43 % 0.00 in 0.0 W/m2 SCT
22:37 45.8 °F 24.5 °F 30.01 in NNE 3.9 mph 5.0 mph 43 % 0.00 in 0.0 W/m2 SCT
22:42 45.7 °F 25.0 °F 30.00 in NNE 2.8 mph 7.0 mph 44 % 0.00 in 0.0 W/m2 SCT
22:47 45.6 °F 24.9 °F 30.00 in North 2.7 mph 6.9 mph 44 % 0.00 in 0.0 W/m2 SCT
22:52 45.5 °F 25.4 °F 30.00 in NNE 2.7 mph 8.0 mph 45 % 0.00 in 0.0 W/m2 SCT
22:57 45.3 °F 25.2 °F 30.00 in NNE 3.2 mph 4.6 mph 45 % 0.00 in 0.0 W/m2 SCT
23:02 45.1 °F 25.0 °F 30.00 in NNE 1.9 mph 3.5 mph 45 % 0.00 in 0.0 W/m2 SCT
23:07 45.0 °F 25.4 °F 30.00 in North 3.5 mph 5.0 mph 46 % 0.00 in 0.0 W/m2 SCT
23:12 44.8 °F 25.8 °F 30.00 in North 2.5 mph 3.5 mph 47 % 0.00 in 0.0 W/m2 SCT
23:17 44.7 °F 25.7 °F 30.00 in North 3.2 mph 4.6 mph 47 % 0.00 in 0.0 W/m2 SCT
23:22 44.6 °F 26.1 °F 30.00 in NNE 0.3 mph 3.5 mph 48 % 0.00 in 0.0 W/m2 SCT
23:27 44.5 °F 26.5 °F 30.00 in NNE 1.1 mph 3.5 mph 49 % 0.00 in 0.0 W/m2 SCT
23:32 44.4 °F 26.9 °F 30.00 in NNE 4.2 mph 6.0 mph 50 % 0.00 in 0.0 W/m2 SCT
23:37 44.3 °F 27.3 °F 29.99 in NE 3.7 mph 5.8 mph 51 % 0.00 in 0.0 W/m2 SCT
23:42 44.2 °F 28.1 °F 29.99 in NNE 4.1 mph 5.0 mph 53 % 0.00 in 0.0 W/m2 SCT
23:47 44.0 °F 29.3 °F 29.98 in NNE 6.5 mph 9.2 mph 56 % 0.00 in 0.0 W/m2 SCT
23:52 43.7 °F 29.5 °F 29.98 in North 4.2 mph 5.8 mph 57 % 0.00 in 0.0 W/m2 SCT
23:57 43.5 °F 30.1 °F 29.98 in NNE 4.3 mph 8.1 mph 59 % 0.00 in 0.0 W/m2 SCT
Air Products Campus Weather
Compliments of Weather Underground - 3.75 mb